Time;durP1;ratioP1;P1;durP2;ratioP2;P2;SDS_P1;SDS_P2;PMS_P1;PMS_P2;Temp;Humidity;BMP_temperature;BMP_pressure;BME280_temperature;BME280_humidity;BME280_pressure;Samples;Min_cycle;Max_cycle;Signal;HPM_P1;HPM_P2
2022/11/26 00:01:19;;;;;;;17.80;6.80;;;;;;;4.78;100.00;97157.06;4909752;28;20040;-85
2022/11/26 00:03:46;;;;;;;17.33;6.70;;;;;;;4.71;100.00;97159.22;4910403;28;20282;-86
2022/11/26 00:06:30;;;;;;;15.63;6.77;;;;;;;4.71;100.00;97157.44;4913779;28;20126;-86
2022/11/26 00:08:58;;;;;;;20.37;6.33;;;;;;;4.67;100.00;97152.56;4910569;28;20035;-86
2022/11/26 00:11:24;;;;;;;12.73;5.20;;;;;;;4.56;100.00;97160.22;4900393;28;20031;-86
2022/11/26 00:13:49;;;;;;;14.37;5.27;;;;;;;4.54;100.00;97151.69;4912342;28;20043;-85
2022/11/26 00:16:15;;;;;;;16.80;5.30;;;;;;;4.51;100.00;97151.88;4917246;28;20070;-86
2022/11/26 00:18:42;;;;;;;20.47;5.73;;;;;;;4.46;100.00;97157.34;4953403;28;20685;-86
2022/11/26 00:21:20;;;;;;;15.97;5.57;;;;;;;4.46;100.00;97166.03;4959781;28;20105;-86
2022/11/26 00:23:46;;;;;;;17.83;7.27;;;;;;;4.42;100.00;97164.53;4950900;28;20043;-86
2022/11/26 00:26:18;;;;;;;20.60;6.70;;;;;;;4.44;100.00;97173.09;4952623;28;20048;-86
2022/11/26 00:28:53;;;;;;;15.30;5.90;;;;;;;4.42;100.00;97180.16;4971475;28;20130;-86
2022/11/26 00:31:19;;;;;;;16.83;5.23;;;;;;;4.40;100.00;97187.25;4958049;28;20054;-86
2022/11/26 00:33:45;;;;;;;12.30;5.10;;;;;;;4.39;100.00;97190.81;4957743;28;20124;-86
2022/11/26 00:36:31;;;;;;;15.77;5.53;;;;;;;4.41;100.00;97193.28;4960391;28;20031;-86
2022/11/26 00:39:10;;;;;;;15.07;5.27;;;;;;;4.41;100.00;97191.53;4958528;28;20035;-86
2022/11/26 00:41:38;;;;;;;14.77;5.77;;;;;;;4.44;100.00;97193.94;4983414;28;20094;-86
2022/11/26 00:44:16;;;;;;;12.70;5.13;;;;;;;4.45;100.00;97198.19;4965643;28;20053;-86
2022/11/26 00:46:42;;;;;;;20.80;10.17;;;;;;;4.47;100.00;97193.75;4957516;28;20099;-86
2022/11/26 00:49:08;;;;;;;16.83;5.47;;;;;;;4.53;100.00;97202.06;4956040;28;20438;-86
2022/11/26 00:51:34;;;;;;;12.90;5.90;;;;;;;4.53;100.00;97189.91;4955512;28;20473;-86
2022/11/26 00:54:02;;;;;;;16.03;6.53;;;;;;;4.53;100.00;97192.53;4958878;28;20051;-86
2022/11/26 00:56:30;;;;;;;16.70;6.87;;;;;;;4.51;100.00;97198.75;4976553;28;20046;-86
2022/11/26 00:58:58;;;;;;;16.00;5.73;;;;;;;4.55;100.00;97202.81;4915319;28;20045;-86
2022/11/26 01:01:27;;;;;;;15.20;6.00;;;;;;;4.55;100.00;97211.47;4916451;28;20137;-86
2022/11/26 01:03:53;;;;;;;16.03;5.03;;;;;;;4.55;100.00;97210.66;4913254;28;20116;-86
2022/11/26 01:06:28;;;;;;;19.87;5.40;;;;;;;4.54;100.00;97206.38;4916647;28;20244;-87
2022/11/26 01:08:54;;;;;;;19.07;6.83;;;;;;;4.54;100.00;97208.97;4926705;28;20486;-85
2022/11/26 01:11:22;;;;;;;18.17;5.83;;;;;;;4.54;100.00;97203.78;4904025;28;20038;-86
2022/11/26 01:13:50;;;;;;;13.57;5.50;;;;;;;4.48;100.00;97207.59;4910871;28;20035;-85
2022/11/26 01:16:27;;;;;;;11.97;5.27;;;;;;;4.48;100.00;97215.41;4918148;28;20082;-85
2022/11/26 01:18:55;;;;;;;16.10;7.10;;;;;;;4.48;100.00;97208.44;4935756;28;20063;-85
2022/11/26 01:21:25;;;;;;;13.47;6.03;;;;;;;4.51;100.00;97211.78;4910623;28;20046;-85
2022/11/26 01:23:51;;;;;;;13.03;5.90;;;;;;;4.51;100.00;97220.44;4912981;28;20564;-85
2022/11/26 01:26:21;;;;;;;16.30;6.40;;;;;;;4.55;100.00;97223.66;4912559;28;20039;-85
2022/11/26 01:28:51;;;;;;;19.00;6.70;;;;;;;4.52;100.00;97221.25;4935167;28;20433;-85
2022/11/26 01:31:25;;;;;;;17.67;6.53;;;;;;;4.53;100.00;97235.94;4959726;28;20033;-86
2022/11/26 01:33:52;;;;;;;15.60;5.87;;;;;;;4.52;100.00;97235.09;4937800;28;20039;-85
2022/11/26 01:36:33;;;;;;;12.97;5.83;;;;;;;4.53;100.00;97246.38;4940184;28;20066;-85
2022/11/26 01:39:17;;;;;;;20.20;6.63;;;;;;;4.50;100.00;97244.81;4907462;28;20071;-85
2022/11/26 01:42:07;;;;;;;15.17;6.30;;;;;;;4.52;100.00;97247.31;4906584;28;20043;-85
2022/11/26 01:44:35;;;;;;;11.90;5.90;;;;;;;4.50;100.00;97247.41;4929698;28;20043;-85
2022/11/26 01:47:20;;;;;;;17.20;7.23;;;;;;;4.52;100.00;97248.13;4921607;28;20042;-85
2022/11/26 01:50:24;;;;;;;14.07;6.57;;;;;;;4.53;100.00;97259.38;4903972;28;20090;-85
2022/11/26 01:52:50;;;;;;;19.88;6.15;;;;;;;4.51;100.00;97266.47;4895503;28;20043;-85
2022/11/26 01:55:16;;;;;;;20.33;6.17;;;;;;;4.51;100.00;97269.91;4910463;28;20061;-85
2022/11/26 01:57:44;;;;;;;14.73;6.13;;;;;;;4.53;100.00;97272.41;4914152;28;20046;-85
2022/11/26 02:00:10;;;;;;;12.47;6.23;;;;;;;4.53;100.00;97275.00;4904818;28;20494;-85
2022/11/26 02:02:38;;;;;;;20.50;7.30;;;;;;;4.57;100.00;97277.34;4914560;28;20043;-85
2022/11/26 02:05:19;;;;;;;18.43;7.47;;;;;;;4.57;100.00;97279.13;4956430;28;20035;-86
2022/11/26 02:07:46;;;;;;;13.90;6.33;;;;;;;4.57;100.00;97274.75;4954215;28;20378;-85
2022/11/26 02:10:12;;;;;;;13.73;6.27;;;;;;;4.55;100.00;97273.16;4957072;28;20057;-85
2022/11/26 02:12:39;;;;;;;14.83;5.97;;;;;;;4.54;100.00;97281.91;4954618;28;20035;-85
2022/11/26 02:15:06;;;;;;;14.40;6.10;;;;;;;4.55;100.00;97283.59;4953393;28;20035;-85
2022/11/26 02:17:43;;;;;;;13.50;6.33;;;;;;;4.53;100.00;97285.44;4944612;28;20050;-85
2022/11/26 02:20:47;;;;;;;18.63;6.63;;;;;;;4.51;100.00;97282.94;4955608;28;20030;-85
2022/11/26 02:23:31;;;;;;;15.13;5.75;;;;;;;4.52;100.00;97283.78;4952360;28;20034;-85
2022/11/26 02:26:34;;;;;;;15.13;6.20;;;;;;;4.54;100.00;97292.34;4977399;28;20037;-85
2022/11/26 02:29:27;;;;;;;18.90;6.75;;;;;;;4.52;100.00;97294.19;4947266;28;20043;-85
2022/11/26 02:32:02;;;;;;;17.63;6.30;;;;;;;4.54;100.00;97298.38;4959116;28;20055;-85
2022/11/26 02:34:57;;;;;;;16.40;5.83;;;;;;;4.51;100.00;97297.75;4901615;28;20231;-85
2022/11/26 02:37:34;;;;;;;15.70;6.80;;;;;;;4.52;100.00;97296.78;4901240;28;20035;-85
2022/11/26 02:40:00;;;;;;;16.70;6.90;;;;;;;4.54;100.00;97302.75;4893305;28;20041;-85
2022/11/26 02:42:32;;;;;;;14.70;5.83;;;;;;;4.55;100.00;97300.03;4910823;28;20073;-86
2022/11/26 02:45:03;;;;;;;14.20;6.33;;;;;;;4.59;100.00;97305.91;4928094;28;20039;-85
2022/11/26 02:47:31;;;;;;;16.87;5.73;;;;;;;4.57;100.00;97297.38;4910424;28;20042;-85
2022/11/26 02:50:02;;;;;;;26.27;7.00;;;;;;;4.60;100.00;97299.78;4893958;28;20307;-85
2022/11/26 02:52:29;;;;;;;19.90;6.43;;;;;;;4.61;100.00;97304.03;4921447;28;21499;-85
2022/11/26 02:54:56;;;;;;;18.67;7.57;;;;;;;4.61;100.00;97304.88;4913859;28;20058;-85
2022/11/26 02:57:26;;;;;;;16.90;7.27;;;;;;;4.59;100.00;97305.91;4906090;28;20039;-85
2022/11/26 02:59:52;;;;;;;13.87;5.93;;;;;;;4.58;100.00;97312.06;4910973;28;20027;-86
2022/11/26 03:02:33;;;;;;;17.87;6.47;;;;;;;4.55;100.00;97320.06;4908157;28;21567;-85
2022/11/26 03:05:01;;;;;;;18.93;7.77;;;;;;;4.54;100.00;97318.38;4972324;28;20046;-85
2022/11/26 03:07:29;;;;;;;13.87;6.00;;;;;;;4.54;100.00;97326.19;4950657;28;21364;-86
2022/11/26 03:09:58;;;;;;;16.80;7.20;;;;;;;4.44;100.00;97334.56;4956544;28;20019;-85
2022/11/26 03:12:25;;;;;;;16.83;6.67;;;;;;;4.39;100.00;97341.84;4936357;28;20063;-85
2022/11/26 03:14:50;;;;;;;14.23;6.47;;;;;;;4.38;100.00;97342.75;4958576;28;20041;-85
2022/11/26 03:17:16;;;;;;;16.40;6.50;;;;;;;4.45;100.00;97341.44;4958016;28;20443;-85
2022/11/26 03:19:42;;;;;;;13.97;5.93;;;;;;;4.46;100.00;97344.88;4942301;28;20107;-85
2022/11/26 03:22:08;;;;;;;15.20;6.57;;;;;;;4.46;100.00;97353.56;4963737;28;20034;-85
2022/11/26 03:24:36;;;;;;;12.93;6.63;;;;;;;4.49;100.00;97357.72;4949133;28;20031;-86
2022/11/26 03:27:01;;;;;;;17.00;5.80;;;;;;;4.56;100.00;97358.19;4953252;28;20090;-85
2022/11/26 03:29:27;;;;;;;17.90;7.13;;;;;;;4.54;100.00;97365.28;4957803;28;20035;-85
2022/11/26 03:31:53;;;;;;;14.60;6.33;;;;;;;4.51;100.00;97362.84;4956013;28;20449;-86
2022/11/26 03:34:19;;;;;;;17.50;7.00;;;;;;;4.51;100.00;97365.47;4921604;28;20038;-85
2022/11/26 03:36:46;;;;;;;18.03;7.07;;;;;;;4.54;100.00;97365.28;4907145;28;20598;-85
2022/11/26 03:39:11;;;;;;;15.07;6.57;;;;;;;4.51;100.00;97355.88;4921603;28;20059;-85
2022/11/26 03:41:37;;;;;;;13.90;6.87;;;;;;;4.47;100.00;97364.81;4913407;28;20035;-85
2022/11/26 03:44:13;;;;;;;14.20;6.73;;;;;;;4.45;100.00;97362.28;4910228;28;20027;-85
2022/11/26 03:46:39;;;;;;;13.50;6.10;;;;;;;4.48;100.00;97364.72;4909353;28;20101;-85
2022/11/26 03:49:05;;;;;;;21.03;7.27;;;;;;;4.45;100.00;97367.50;4925963;28;20703;-85
2022/11/26 03:51:31;;;;;;;17.57;7.70;;;;;;;4.47;100.00;97370.03;4908607;28;20039;-85
2022/11/26 03:53:57;;;;;;;16.83;7.27;;;;;;;4.47;100.00;97376.06;4895383;28;20102;-85
2022/11/26 03:56:22;;;;;;;14.23;7.70;;;;;;;4.49;100.00;97374.22;4895644;28;20115;-85
2022/11/26 03:58:48;;;;;;;18.43;7.07;;;;;;;4.51;100.00;97370.69;4873752;28;20149;-85
2022/11/26 04:01:14;;;;;;;14.30;7.03;;;;;;;4.52;100.00;97377.53;4891851;28;20042;-85
2022/11/26 04:03:40;;;;;;;18.27;7.00;;;;;;;4.53;100.00;97379.22;4887695;28;21213;-85
2022/11/26 04:06:06;;;;;;;15.33;6.83;;;;;;;4.51;100.00;97381.94;4895134;28;20043;-85
2022/11/26 04:08:32;;;;;;;20.57;7.40;;;;;;;4.52;100.00;97387.97;4911950;28;20044;-85
2022/11/26 04:10:58;;;;;;;24.07;9.20;;;;;;;4.53;100.00;97384.41;4935580;28;21641;-85
2022/11/26 04:13:24;;;;;;;22.00;8.07;;;;;;;4.54;100.00;97386.13;4913637;28;20141;-85
2022/11/26 04:15:49;;;;;;;14.40;7.67;;;;;;;4.55;100.00;97385.19;4929268;28;20119;-85
2022/11/26 04:18:15;;;;;;;20.07;8.20;;;;;;;4.59;100.00;97391.88;4910675;28;20046;-85
2022/11/26 04:20:41;;;;;;;19.70;6.70;;;;;;;4.58;100.00;97398.03;4910906;28;20035;-85
2022/11/26 04:23:07;;;;;;;14.07;6.43;;;;;;;4.56;100.00;97394.66;4907356;28;20053;-85
2022/11/26 04:25:33;;;;;;;16.27;6.23;;;;;;;4.53;100.00;97395.72;4911949;28;20078;-85
2022/11/26 04:27:59;;;;;;;16.10;6.67;;;;;;;4.55;100.00;97398.19;4974195;28;20038;-86
2022/11/26 04:30:34;;;;;;;15.37;6.73;;;;;;;4.55;100.00;97393.81;4973636;28;20062;-86
2022/11/26 04:33:00;;;;;;;14.33;7.47;;;;;;;4.55;100.00;97399.03;4935288;28;20155;-85
2022/11/26 04:35:26;;;;;;;15.83;6.97;;;;;;;4.54;100.00;97399.16;4911637;28;20043;-85
2022/11/26 04:37:51;;;;;;;20.10;7.27;;;;;;;4.56;100.00;97402.47;4894681;28;20047;-85
2022/11/26 04:40:17;;;;;;;18.70;7.40;;;;;;;4.55;100.00;97401.63;4909495;28;20066;-85
2022/11/26 04:42:43;;;;;;;16.90;7.20;;;;;;;4.53;100.00;97397.44;4908006;28;20146;-85
2022/11/26 04:45:09;;;;;;;16.97;7.97;;;;;;;4.53;100.00;97398.31;4906449;28;20045;-85
2022/11/26 04:47:35;;;;;;;19.03;7.23;;;;;;;4.53;100.00;97400.06;4922586;28;21361;-85
2022/11/26 04:50:01;;;;;;;22.67;8.33;;;;;;;4.52;100.00;97401.00;4910574;28;20047;-85
2022/11/26 04:52:26;;;;;;;16.93;7.20;;;;;;;4.54;100.00;97404.34;4923260;28;20049;-85
2022/11/26 04:54:52;;;;;;;26.37;9.20;;;;;;;4.66;100.00;97399.25;4911955;28;20118;-85
2022/11/26 04:57:18;;;;;;;18.67;7.50;;;;;;;4.54;100.00;97409.56;4912986;28;20042;-85
2022/11/26 04:59:44;;;;;;;16.10;8.60;;;;;;;4.54;100.00;97405.19;4929347;28;20031;-85
2022/11/26 05:02:22;;;;;;;16.37;9.13;;;;;;;4.55;100.00;97408.63;4905600;28;20401;-85
2022/11/26 05:04:48;;;;;;;16.23;8.50;;;;;;;4.55;100.00;97416.44;4934105;28;20521;-84
2022/11/26 05:07:13;;;;;;;21.37;8.03;;;;;;;4.57;100.00;97411.97;4914351;28;20043;-85
2022/11/26 05:09:45;;;;;;;22.27;8.33;;;;;;;4.57;100.00;97422.41;4919320;28;20047;-86
2022/11/26 05:12:11;;;;;;;19.20;8.20;;;;;;;4.58;100.00;97411.88;4906353;28;20034;-85
2022/11/26 05:14:37;;;;;;;17.37;8.90;;;;;;;4.60;100.00;97424.81;4909493;28;21731;-85
2022/11/26 05:17:02;;;;;;;18.70;8.07;;;;;;;4.60;100.00;97435.25;4893845;28;20043;-85
2022/11/26 05:19:28;;;;;;;22.80;9.47;;;;;;;4.62;100.00;97435.97;4871397;28;20035;-85
2022/11/26 05:21:54;;;;;;;21.47;8.97;;;;;;;4.63;100.00;97445.50;4872019;28;20090;-85
2022/11/26 05:24:20;;;;;;;18.07;8.27;;;;;;;4.63;100.00;97440.28;4867296;28;20058;-85
2022/11/26 05:26:45;;;;;;;19.40;9.10;;;;;;;4.62;100.00;97447.22;4875584;28;23311;-85
2022/11/26 05:29:11;;;;;;;19.13;8.07;;;;;;;4.64;100.00;97439.34;4872484;28;20031;-86
2022/11/26 05:31:37;;;;;;;22.00;9.57;;;;;;;4.61;100.00;97439.53;4873043;28;20697;-85
2022/11/26 05:34:02;;;;;;;22.03;9.10;;;;;;;4.66;100.00;97443.53;4902444;28;20038;-85
2022/11/26 05:36:28;;;;;;;20.20;9.30;;;;;;;4.63;100.00;97432.47;4891920;28;20151;-85
2022/11/26 05:38:54;;;;;;;23.03;8.70;;;;;;;4.64;100.00;97437.56;4898057;28;20444;-85
2022/11/26 05:41:21;;;;;;;18.20;10.13;;;;;;;4.59;100.00;97436.16;4923054;28;20070;-85
2022/11/26 05:43:47;;;;;;;23.27;10.40;;;;;;;4.59;100.00;97431.78;4910496;28;20555;-85
2022/11/26 05:46:15;;;;;;;24.10;11.23;;;;;;;4.59;100.00;97438.75;4904946;28;20824;-85
2022/11/26 05:48:40;;;;;;;17.07;9.07;;;;;;;4.60;100.00;97438.69;4912059;28;20647;-85
2022/11/26 05:51:07;;;;;;;24.40;9.73;;;;;;;4.58;100.00;97437.94;4929251;28;20066;-85
2022/11/26 05:53:33;;;;;;;25.27;9.77;;;;;;;4.59;100.00;97436.16;4934995;28;20255;-85
2022/11/26 05:55:59;;;;;;;20.03;8.70;;;;;;;4.59;100.00;97441.38;4928791;28;20079;-84
2022/11/26 05:58:24;;;;;;;19.47;8.90;;;;;;;4.54;100.00;97444.25;4921268;28;20099;-86
2022/11/26 06:00:51;;;;;;;17.97;9.23;;;;;;;4.55;100.00;97445.94;4922493;28;20056;-85
2022/11/26 06:03:17;;;;;;;23.57;9.60;;;;;;;4.53;100.00;97446.94;4916809;28;20111;-85
2022/11/26 06:05:49;;;;;;;23.90;9.37;;;;;;;4.56;100.00;97446.75;4915715;28;20116;-86
2022/11/26 06:08:14;;;;;;;22.53;9.80;;;;;;;4.56;100.00;97445.03;4907013;28;20162;-85
2022/11/26 06:10:43;;;;;;;16.57;9.37;;;;;;;4.54;100.00;97435.63;4928104;28;20045;-85
2022/11/26 06:13:09;;;;;;;18.50;9.63;;;;;;;4.54;100.00;97446.03;4912408;28;21287;-85
2022/11/26 06:15:34;;;;;;;19.27;11.03;;;;;;;4.52;100.00;97447.88;4952701;28;20046;-86
2022/11/26 06:18:00;;;;;;;18.33;11.33;;;;;;;4.49;100.00;97449.75;4955883;28;20027;-86
2022/11/26 06:20:26;;;;;;;24.93;10.20;;;;;;;4.53;100.00;97446.94;4938587;28;20035;-85
2022/11/26 06:22:51;;;;;;;25.73;11.27;;;;;;;4.53;100.00;97452.16;4957143;28;20039;-86
2022/11/26 06:25:17;;;;;;;21.47;11.53;;;;;;;4.54;100.00;97457.28;4970881;28;20097;-85
2022/11/26 06:27:43;;;;;;;21.67;10.60;;;;;;;4.56;100.00;97462.38;4956853;28;20039;-86
2022/11/26 06:30:10;;;;;;;21.63;13.70;;;;;;;4.58;100.00;97461.38;4960632;28;20027;-86
2022/11/26 06:32:36;;;;;;;18.87;10.63;;;;;;;4.58;100.00;97463.97;4943440;28;20046;-85
2022/11/26 06:35:03;;;;;;;21.53;12.90;;;;;;;4.56;100.00;97462.38;4918583;28;20027;-86
2022/11/26 06:37:31;;;;;;;26.00;13.37;;;;;;;4.55;100.00;97464.16;4902565;28;20043;-85
2022/11/26 06:39:57;;;;;;;22.47;12.03;;;;;;;4.60;100.00;97469.13;4919095;28;20054;-86
2022/11/26 06:42:26;;;;;;;24.60;12.67;;;;;;;4.62;100.00;97477.66;4921178;28;20556;-85
2022/11/26 06:44:53;;;;;;;26.67;12.17;;;;;;;4.59;100.00;97488.25;4924685;28;20489;-85
2022/11/26 06:47:19;;;;;;;23.50;11.47;;;;;;;4.62;100.00;97488.09;4906853;28;20046;-85
2022/11/26 06:49:44;;;;;;;27.67;11.97;;;;;;;4.60;100.00;97497.78;4927203;28;20031;-85
2022/11/26 06:52:17;;;;;;;25.13;11.27;;;;;;;4.62;100.00;97498.50;4912130;28;20047;-86
2022/11/26 06:54:43;;;;;;;24.23;11.53;;;;;;;4.60;100.00;97500.38;4935810;28;20079;-86
2022/11/26 06:57:11;;;;;;;25.73;13.67;;;;;;;4.59;100.00;97509.09;4928790;28;20035;-85
2022/11/26 06:59:37;;;;;;;24.63;11.60;;;;;;;4.57;100.00;97508.38;4929233;28;20773;-86
2022/11/26 07:02:03;;;;;;;25.27;12.80;;;;;;;4.59;100.00;97514.31;4921817;28;20158;-86
2022/11/26 07:04:28;;;;;;;23.20;10.80;;;;;;;4.63;100.00;97511.47;4946306;28;20066;-85
2022/11/26 07:06:54;;;;;;;30.47;13.10;;;;;;;4.59;100.00;97507.34;4957296;28;20082;-85
2022/11/26 07:09:20;;;;;;;24.00;12.43;;;;;;;4.57;100.00;97510.97;4959368;28;20130;-86
2022/11/26 07:11:46;;;;;;;23.10;10.73;;;;;;;4.57;100.00;97510.97;4955114;28;20023;-85
2022/11/26 07:14:11;;;;;;;31.77;14.97;;;;;;;4.59;100.00;97514.31;4966070;28;20041;-86
2022/11/26 07:16:37;;;;;;;29.23;15.43;;;;;;;4.59;100.00;97516.91;4961311;28;20034;-86
2022/11/26 07:19:03;;;;;;;23.20;12.37;;;;;;;4.64;100.00;97518.34;4937806;28;20039;-85
2022/11/26 07:21:29;;;;;;;22.30;11.67;;;;;;;4.67;100.00;97520.75;4957082;28;20437;-85
2022/11/26 07:23:55;;;;;;;29.73;12.30;;;;;;;4.65;100.00;97521.78;4961407;28;20822;-85
2022/11/26 07:26:22;;;;;;;22.87;12.33;;;;;;;4.67;100.00;97522.53;4974715;28;20063;-86
2022/11/26 07:28:48;;;;;;;23.23;11.23;;;;;;;4.70;100.00;97524.97;4956113;28;20598;-86
2022/11/26 07:31:17;;;;;;;26.23;12.73;;;;;;;4.68;100.00;97527.63;4952429;28;20042;-85
2022/11/26 07:33:43;;;;;;;27.87;14.00;;;;;;;4.69;100.00;97531.09;4946231;28;20047;-86
2022/11/26 07:36:21;;;;;;;28.20;11.07;;;;;;;4.72;100.00;97528.28;4961291;28;20046;-86
2022/11/26 07:38:47;;;;;;;22.77;11.27;;;;;;;4.67;100.00;97533.78;4965574;28;20035;-86
2022/11/26 07:41:15;;;;;;;20.87;10.93;;;;;;;4.68;100.00;97532.84;4966945;28;20027;-85
2022/11/26 07:43:41;;;;;;;24.80;11.60;;;;;;;4.69;100.00;97541.50;4957892;28;20040;-89
2022/11/26 07:46:10;;;;;;;29.10;13.90;;;;;;;4.77;100.00;97543.69;4917234;28;21917;-89
2022/11/26 07:48:38;;;;;;;25.20;14.20;;;;;;;4.79;100.00;97552.22;4930621;28;20016;-89
2022/11/26 07:51:04;;;;;;;25.70;12.80;;;;;;;4.77;100.00;97554.94;4905117;28;20548;-89
2022/11/26 07:53:32;;;;;;;22.47;11.87;;;;;;;4.83;100.00;97562.41;4889964;28;20035;-89
2022/11/26 07:55:57;;;;;;;23.33;11.70;;;;;;;4.85;100.00;97564.91;4900107;28;20114;-89
2022/11/26 07:58:25;;;;;;;24.73;11.80;;;;;;;4.88;100.00;97572.53;4922679;28;20047;-89
2022/11/26 08:00:52;;;;;;;23.40;13.67;;;;;;;4.93;100.00;97573.13;4931795;28;20508;-89
2022/11/26 08:03:18;;;;;;;27.80;12.53;;;;;;;4.95;100.00;97582.50;4910697;28;20043;-89
2022/11/26 08:05:44;;;;;;;25.93;12.40;;;;;;;4.98;100.00;97581.47;4898152;28;20075;-89
2022/11/26 08:08:11;;;;;;;16.97;11.80;;;;;;;5.04;100.00;97577.69;4890104;28;20054;-89
2022/11/26 08:10:37;;;;;;;22.07;11.93;;;;;;;5.08;100.00;97590.44;4887833;28;24138;-88
2022/11/26 08:13:09;;;;;;;18.20;11.00;;;;;;;5.07;100.00;97587.94;4894017;28;20043;-88
2022/11/26 08:15:41;;;;;;;26.20;12.97;;;;;;;5.12;100.00;97586.69;4919514;28;20035;-90
2022/11/26 08:18:07;;;;;;;16.33;10.40;;;;;;;5.24;100.00;97586.91;4944479;28;20027;-90
2022/11/26 08:20:32;;;;;;;22.97;10.87;;;;;;;5.24;100.00;97589.53;4922011;28;20028;-88
2022/11/26 08:22:58;;;;;;;19.40;10.53;;;;;;;5.29;100.00;97595.28;4937078;29;20520;-86
2022/11/26 08:25:24;;;;;;;18.27;9.43;;;;;;;5.31;100.00;97599.47;4954980;29;20070;-86
2022/11/26 08:27:51;;;;;;;20.43;9.33;;;;;;;5.40;100.00;97598.09;4953173;29;20071;-85
2022/11/26 08:30:16;;;;;;;23.43;11.47;;;;;;;5.40;100.00;97598.94;4947494;29;20058;-85
2022/11/26 08:32:42;;;;;;;21.30;12.43;;;;;;;5.41;100.00;97598.00;4946114;29;20478;-85
2022/11/26 08:35:24;;;;;;;21.43;13.03;;;;;;;5.44;100.00;97600.41;4939502;29;20073;-85
2022/11/26 08:38:06;;;;;;;24.53;10.73;;;;;;;5.44;100.00;97603.03;4955723;29;20045;-84
2022/11/26 08:40:32;;;;;;;22.23;10.77;;;;;;;5.56;100.00;97609.25;4982583;28;20021;-88
2022/11/26 08:43:00;;;;;;;23.00;11.23;;;;;;;5.57;100.00;97610.94;4953158;28;20122;-87
2022/11/26 08:45:35;;;;;;;20.90;11.13;;;;;;;5.65;100.00;97610.47;4941830;29;20501;-88
2022/11/26 08:48:07;;;;;;;22.03;11.63;;;;;;;5.69;100.00;97611.94;4933842;29;20422;-88
2022/11/26 08:50:33;;;;;;;27.63;12.03;;;;;;;5.65;100.00;97608.69;4936626;29;20042;-88
2022/11/26 08:53:02;;;;;;;23.73;15.23;;;;;;;5.69;100.00;97606.72;4964834;28;20548;-87
2022/11/26 08:55:29;;;;;;;24.13;12.27;;;;;;;5.70;100.00;97620.59;4966697;28;20122;-86
2022/11/26 08:57:54;;;;;;;29.63;12.90;;;;;;;5.57;100.00;97623.16;4953819;28;20121;-86
2022/11/26 09:00:23;;;;;;;24.07;13.67;;;;;;;5.56;100.00;97624.06;4932330;29;20463;-91
2022/11/26 09:02:50;;;;;;;27.17;11.37;;;;;;;5.77;100.00;97619.28;4943601;29;20099;-93
2022/11/26 09:05:15;;;;;;;20.93;11.30;;;;;;;5.89;100.00;97619.38;4931630;29;20070;-92
2022/11/26 09:07:41;;;;;;;19.40;11.07;;;;;;;5.87;100.00;97629.09;4951364;29;20490;-92
2022/11/26 09:13:15;;;;;;;20.10;10.80;;;;;;;5.73;100.00;97618.63;4966463;29;20043;-92
2022/11/26 09:15:41;;;;;;;19.43;11.03;;;;;;;5.71;100.00;97619.69;4961325;29;20043;-90
2022/11/26 09:18:06;;;;;;;17.33;9.77;;;;;;;5.70;100.00;97626.69;4958084;28;20039;-92
2022/11/26 09:20:32;;;;;;;19.27;10.80;;;;;;;5.74;100.00;97632.56;4923589;29;20081;-92
2022/11/26 09:22:58;;;;;;;16.70;9.80;;;;;;;5.83;100.00;97632.78;4937135;29;20028;-92
2022/11/26 09:25:44;;;;;;;22.60;11.17;;;;;;;5.89;100.00;97640.25;4959955;28;20047;-91
2022/11/26 09:28:15;;;;;;;23.63;10.27;;;;;;;5.99;100.00;97630.09;4950577;29;20028;-93
2022/11/26 09:31:01;;;;;;;22.03;9.90;;;;;;;5.98;100.00;97635.44;4955644;29;20039;-90
2022/11/26 09:33:40;;;;;;;18.37;10.73;;;;;;;6.16;100.00;97634.25;4965067;28;20032;-94
2022/11/26 09:36:20;;;;;;;31.67;14.30;;;;;;;6.09;100.00;97630.38;4959435;29;20039;-95
2022/11/26 09:43:11;;;;;;;17.97;9.63;;;;;;;5.88;100.00;97622.91;4947218;29;20038;-93
2022/11/26 09:46:01;;;;;;;21.27;10.60;;;;;;;5.95;100.00;97635.63;4912881;29;20039;-94
2022/11/26 09:49:01;;;;;;;20.20;9.43;;;;;;;5.84;100.00;97618.00;4909106;29;20031;-96
2022/11/26 09:51:28;;;;;;;24.63;10.57;;;;;;;5.83;100.00;97619.75;4941940;28;20039;-95
2022/11/26 09:54:21;;;;;;;21.50;10.97;;;;;;;5.90;100.00;97631.50;4941016;29;20027;-89
2022/11/26 09:56:52;;;;;;;17.73;7.63;;;;;;;5.83;100.00;97632.78;4923903;29;20044;-85
2022/11/26 10:04:08;;;;;;;24.87;10.83;;;;;;;5.76;100.00;97634.13;4937991;29;20044;-89
2022/11/26 10:07:36;;;;;;;18.73;9.97;;;;;;;5.71;100.00;97633.56;4931893;29;20059;-93
2022/11/26 10:11:03;;;;;;;23.00;11.10;;;;;;;5.80;100.00;97630.41;4942994;29;20490;-93
2022/11/26 10:21:28;;;;;;;19.23;9.17;;;;;;;6.44;100.00;97612.44;4937143;29;20047;-90
2022/11/26 10:29:27;;;;;;;33.93;9.47;;;;;;;6.56;100.00;97616.84;4947775;29;20055;-77
2022/11/26 10:32:00;;;;;;;21.08;7.85;;;;;;;6.66;100.00;97613.66;4950389;29;20031;-93
2022/11/26 10:34:38;;;;;;;15.80;6.72;;;;;;;6.55;100.00;97611.75;4949286;29;20036;-94
2022/11/26 10:37:31;;;;;;;16.37;8.07;;;;;;;6.59;100.00;97605.38;4953469;29;20039;-93
2022/11/26 10:40:31;;;;;;;17.67;6.82;;;;;;;6.74;100.00;97603.50;4945321;29;20059;-91
2022/11/26 10:43:07;;;;;;;17.87;7.13;;;;;;;7.37;100.00;97588.78;4953364;29;20094;-92
2022/11/26 10:45:54;;;;;;;43.00;26.37;;;;;;;8.15;100.00;97581.50;4955474;29;20035;-84
2022/11/26 10:49:10;;;;;;;52.07;32.37;;;;;;;8.85;100.00;97569.38;4946553;29;20035;-93
2022/11/26 12:26:55;;;;;;;11.57;3.20;;;;;;;10.31;100.00;97508.88;4957965;29;20099;-91
2022/11/26 13:01:24;;;;;;;39.87;25.73;;;;;;;10.10;100.00;97507.03;4951982;29;20110;-95
2022/11/26 13:03:50;;;;;;;52.13;30.87;;;;;;;9.83;100.00;97511.88;4941923;29;20485;-87
2022/11/26 14:13:21;;;;;;;10.87;3.17;;;;;;;8.12;100.00;97518.84;4956626;28;20095;-87
2022/11/26 14:16:08;;;;;;;12.50;3.63;;;;;;;8.88;100.00;97519.31;4917888;29;20048;-90
2022/11/26 14:18:51;;;;;;;8.00;3.37;;;;;;;9.57;100.00;97529.72;4929570;29;20039;-87
2022/11/26 14:21:19;;;;;;;7.23;2.50;;;;;;;8.92;100.00;97510.25;4925049;29;20067;-85
2022/11/26 14:23:47;;;;;;;9.97;3.50;;;;;;;8.68;100.00;97510.31;4917763;29;20050;-84
2022/11/26 14:26:26;;;;;;;10.73;3.13;;;;;;;8.35;100.00;97516.28;4918251;29;20031;-86
2022/11/26 14:29:19;;;;;;;11.77;3.70;;;;;;;7.87;100.00;97530.25;4916788;29;20094;-86
2022/11/26 14:32:07;;;;;;;16.50;6.03;;;;;;;7.75;100.00;97523.28;4900306;29;20027;-86
2022/11/26 14:34:44;;;;;;;11.40;5.07;;;;;;;7.50;100.00;97532.88;4907449;29;20023;-85
2022/11/26 14:37:19;;;;;;;13.33;5.80;;;;;;;7.30;100.00;97547.34;4934724;29;20122;-85
2022/11/26 14:39:55;;;;;;;12.30;4.13;;;;;;;7.28;100.00;97538.78;4919386;29;20127;-84
2022/11/26 14:42:21;;;;;;;7.87;3.37;;;;;;;7.20;100.00;97546.31;4925869;29;20397;-84
2022/11/26 14:45:14;;;;;;;9.57;3.63;;;;;;;7.24;100.00;97544.31;4931061;28;20129;-83
2022/11/26 14:47:43;;;;;;;9.07;3.42;;;;;;;7.17;100.00;97543.91;4935527;28;20045;-83
2022/11/26 14:50:13;;;;;;;9.23;3.87;;;;;;;7.03;100.00;97549.25;4921510;28;20031;-84
2022/11/26 14:52:41;;;;;;;6.70;3.43;;;;;;;7.00;100.00;97544.22;4935565;28;20035;-84
2022/11/26 14:55:29;;;;;;;12.90;4.77;;;;;;;6.78;100.00;97543.09;4920687;29;20041;-83
2022/11/26 14:57:59;;;;;;;12.73;5.63;;;;;;;6.75;100.00;97550.31;4941106;29;20418;-83
2022/11/26 15:00:28;;;;;;;9.97;4.93;;;;;;;6.67;100.00;97553.41;4933101;29;20047;-83
2022/11/26 15:02:58;;;;;;;11.60;4.07;;;;;;;6.58;100.00;97554.03;4919598;29;20036;-84
2022/11/26 15:05:27;;;;;;;13.87;4.30;;;;;;;6.67;100.00;97561.25;4941046;28;20090;-83
2022/11/26 15:08:03;;;;;;;14.90;4.80;;;;;;;6.57;100.00;97555.81;4965816;28;20042;-84
2022/11/26 15:10:35;;;;;;;16.03;4.83;;;;;;;6.51;100.00;97555.38;4939842;29;20395;-83
2022/11/26 15:13:24;;;;;;;10.30;3.97;;;;;;;6.43;100.00;97565.50;4963419;28;20039;-83
2022/11/26 15:15:54;;;;;;;17.37;6.90;;;;;;;6.33;100.00;97568.69;4948592;29;20039;-83
2022/11/26 15:18:27;;;;;;;10.93;5.43;;;;;;;6.33;100.00;97571.31;4924437;29;20122;-83